Cottonwood Airport (P52)
Cottonwood, AZ
Field Elevation: 3562
Lat: 34°43.80N  Long: 112°02.10W
CTAF/Unicom Freq: 122.7000
   
    
Weather Advisories
2018-01-20   20:54 Z
Altimeter 29.85" Hg
Wind 220° @ 10 KT
Gusts 17 KT
Visibility 10 SM
Temperature 11° C (52° F)
Dewpoint -2° C (28° F)
Relative Humidity 42%
Density Altitude --
Condensation Altitude 9,700 feet
Wind and Runways
Indicated Runway = 14
Headwind = 2 kt
Crosswind = 10 kt
History
 
 
 
More Info
NOAA Forecast
 
 
About Us
Belfort Instrument
 
 
FAA Disclaimer: The data displayed is for advisory purposes only and is not to be used for flight planning or operations. For official data, please call (not available) to hear the current automated AWOS voice message.
  METAR P52 202054Z AUTO 22010G17KT 10 SM 11/M02 A2985